createdAt,value
2023-03-29T00:02:19.918Z,78.35
2023-03-29T00:04:47.524Z,77.96
2023-03-29T00:07:14.691Z,78.00
2023-03-29T00:09:42.557Z,77.83
2023-03-29T00:12:11.696Z,78.21
2023-03-29T00:14:38.890Z,78.24
2023-03-29T00:17:06.544Z,78.64
2023-03-29T00:19:36.770Z,79.01
2023-03-29T00:22:06.276Z,79.17
2023-03-29T00:24:33.901Z,79.27
2023-03-29T00:27:01.128Z,79.52
2023-03-29T00:29:28.598Z,79.41
2023-03-29T00:31:56.440Z,79.27
2023-03-29T00:34:24.744Z,79.07
2023-03-29T00:36:53.062Z,79.21
2023-03-29T00:39:21.039Z,81.66
2023-03-29T00:41:49.413Z,82.96
2023-03-29T00:44:54.237Z,84.23
2023-03-29T00:47:45.769Z,85.04
2023-03-29T00:50:45.913Z,85.27
2023-03-29T00:53:33.921Z,85.56
2023-03-29T00:56:14.224Z,85.80
2023-03-29T00:58:47.502Z,87.38
2023-03-29T01:01:17.930Z,86.90
2023-03-29T01:03:54.755Z,86.84
2023-03-29T01:06:24.889Z,87.31
2023-03-29T01:08:58.660Z,89.28
2023-03-29T01:11:33.083Z,90.78
2023-03-29T01:14:06.915Z,89.59
2023-03-29T01:16:38.422Z,88.72
2023-03-29T01:19:09.449Z,89.88
2023-03-29T01:21:43.729Z,92.48
2023-03-29T01:24:26.438Z,90.31
2023-03-29T01:27:25.675Z,88.94
2023-03-29T01:30:01.194Z,90.21
2023-03-29T01:32:35.453Z,90.65
2023-03-29T01:35:10.579Z,91.15
2023-03-29T01:37:45.829Z,90.13
2023-03-29T01:40:14.501Z,93.60
2023-03-29T01:42:46.793Z,93.66
2023-03-29T01:45:25.108Z,94.83
2023-03-29T01:48:04.552Z,93.89
2023-03-29T01:50:51.076Z,92.27
2023-03-29T01:53:28.878Z,91.92
2023-03-29T01:56:00.530Z,91.19
2023-03-29T01:58:33.910Z,91.91
2023-03-29T02:01:05.893Z,91.26
2023-03-29T02:03:42.441Z,93.51
2023-03-29T02:06:14.761Z,93.25
2023-03-29T02:08:42.775Z,92.95
2023-03-29T02:11:10.160Z,93.99
2023-03-29T02:13:37.739Z,95.66
2023-03-29T02:16:12.616Z,95.59
2023-03-29T02:18:41.904Z,93.41
2023-03-29T02:21:21.347Z,95.81
2023-03-29T02:23:50.098Z,95.22
2023-03-29T02:26:17.985Z,96.63
2023-03-29T02:28:45.873Z,95.76
2023-03-29T02:31:24.314Z,94.21
2023-03-29T02:33:58.752Z,95.87
2023-03-29T02:36:29.757Z,94.96
2023-03-29T02:38:59.502Z,94.33
2023-03-29T02:41:27.724Z,94.59
2023-03-29T02:43:56.805Z,95.46
2023-03-29T02:46:27.985Z,94.85
2023-03-29T02:48:57.440Z,95.57
2023-03-29T02:51:31.434Z,96.36
2023-03-29T02:54:14.002Z,97.16
2023-03-29T02:56:49.934Z,99.88
2023-03-29T02:59:19.535Z,99.01
2023-03-29T03:01:46.920Z,100.00
2023-03-29T03:04:15.448Z,99.84
2023-03-29T03:06:44.340Z,99.12
2023-03-29T03:09:11.844Z,99.16
2023-03-29T03:11:40.606Z,100.00
2023-03-29T03:14:08.324Z,100.00
2023-03-29T03:16:37.174Z,100.00
2023-03-29T03:19:05.097Z,100.00
2023-03-29T03:21:33.674Z,100.00
2023-03-29T03:24:00.944Z,100.00
2023-03-29T03:26:30.182Z,100.00
2023-03-29T03:28:58.340Z,100.00
2023-03-29T03:31:33.625Z,100.00
2023-03-29T03:34:03.385Z,100.00
2023-03-29T03:36:31.674Z,100.00
2023-03-29T03:38:58.851Z,100.00
2023-03-29T03:41:26.425Z,100.00
2023-03-29T03:43:54.517Z,100.00
2023-03-29T03:46:22.254Z,100.00
2023-03-29T03:48:50.528Z,100.00
2023-03-29T03:51:18.479Z,100.00
2023-03-29T03:53:46.031Z,100.00
2023-03-29T03:56:16.548Z,100.00
2023-03-29T03:58:44.440Z,100.00
2023-03-29T04:01:11.936Z,100.00
2023-03-29T04:03:39.726Z,100.00
2023-03-29T04:06:07.707Z,100.00
2023-03-29T04:08:36.168Z,100.00
2023-03-29T04:11:05.098Z,100.00
2023-03-29T04:13:34.881Z,100.00
2023-03-29T04:16:04.084Z,100.00
2023-03-29T04:18:32.395Z,100.00
2023-03-29T04:21:00.127Z,100.00
2023-03-29T04:23:28.640Z,100.00
2023-03-29T04:25:57.136Z,100.00
2023-03-29T04:28:26.152Z,100.00
2023-03-29T04:30:53.862Z,100.00
2023-03-29T04:33:21.715Z,100.00
2023-03-29T04:35:49.451Z,100.00
2023-03-29T04:38:17.139Z,100.00
2023-03-29T04:40:45.150Z,100.00
2023-03-29T04:43:12.504Z,100.00
2023-03-29T04:45:41.749Z,99.93
2023-03-29T04:48:09.637Z,99.47
2023-03-29T04:50:38.599Z,98.51
2023-03-29T04:53:07.573Z,97.20
2023-03-29T04:55:35.342Z,95.36
2023-03-29T04:58:02.944Z,94.84
2023-03-29T05:00:31.420Z,94.04
2023-03-29T05:03:01.537Z,92.98
2023-03-29T05:05:29.451Z,91.84
2023-03-29T05:07:57.198Z,91.86
2023-03-29T05:10:25.837Z,89.52
2023-03-29T05:12:54.222Z,88.65
2023-03-29T05:15:22.640Z,88.54
2023-03-29T05:17:50.290Z,88.00
2023-03-29T05:20:17.696Z,87.29
2023-03-29T05:22:45.258Z,88.03
2023-03-29T05:25:14.095Z,87.45
2023-03-29T05:27:42.515Z,88.35
2023-03-29T05:30:10.729Z,86.87
2023-03-29T05:32:38.892Z,85.11
2023-03-29T05:35:06.943Z,85.80
2023-03-29T05:37:34.601Z,83.64
2023-03-29T05:40:10.326Z,84.46
2023-03-29T05:42:38.923Z,80.69
2023-03-29T05:45:07.764Z,80.87
2023-03-29T05:47:35.429Z,80.58
2023-03-29T05:50:02.924Z,81.80
2023-03-29T05:52:31.024Z,82.61
2023-03-29T05:54:58.332Z,81.12
2023-03-29T05:57:26.102Z,79.88
2023-03-29T05:59:55.024Z,79.45
2023-03-29T06:02:22.925Z,78.33
2023-03-29T06:04:51.759Z,80.36
2023-03-29T06:07:24.593Z,79.98
2023-03-29T06:09:54.773Z,82.70
2023-03-29T06:12:24.825Z,79.58
2023-03-29T06:14:53.236Z,76.14
2023-03-29T06:17:21.073Z,73.29
2023-03-29T06:19:48.648Z,75.21
2023-03-29T06:22:16.530Z,70.55
2023-03-29T06:24:44.095Z,66.25
2023-03-29T06:27:13.330Z,61.23
2023-03-29T06:29:41.312Z,55.62
2023-03-29T06:32:08.963Z,49.88
2023-03-29T06:34:39.643Z,47.32
2023-03-29T06:37:08.559Z,46.14
2023-03-29T06:39:36.204Z,45.35
2023-03-29T06:42:20.200Z,44.43
2023-03-29T06:44:49.777Z,41.98
2023-03-29T06:47:18.074Z,41.81
2023-03-29T06:49:45.657Z,43.20
2023-03-29T06:52:13.752Z,43.06
2023-03-29T06:54:41.391Z,44.20
2023-03-29T06:57:08.848Z,45.37
2023-03-29T06:59:36.430Z,46.59
2023-03-29T07:02:03.782Z,47.24
2023-03-29T07:04:32.467Z,48.10
2023-03-29T07:07:01.985Z,47.76
2023-03-29T07:09:30.312Z,47.56
2023-03-29T07:12:01.512Z,49.31
2023-03-29T07:14:30.115Z,50.59
2023-03-29T07:17:01.522Z,50.96
2023-03-29T07:19:30.446Z,50.25
2023-03-29T07:21:58.874Z,50.54
2023-03-29T07:24:26.636Z,50.77
2023-03-29T07:27:03.311Z,50.24
2023-03-29T07:29:32.250Z,49.49
2023-03-29T07:32:00.340Z,47.76
2023-03-29T07:34:30.187Z,48.00
2023-03-29T07:36:58.129Z,47.53
2023-03-29T07:39:26.352Z,45.50
2023-03-29T07:41:58.045Z,44.41
2023-03-29T07:44:27.108Z,42.63
2023-03-29T07:46:55.522Z,41.22
2023-03-29T07:49:22.924Z,40.56
2023-03-29T07:51:50.499Z,40.08
2023-03-29T07:54:19.045Z,38.96
2023-03-29T07:56:47.835Z,40.00
2023-03-29T07:59:16.669Z,40.73
2023-03-29T08:01:44.858Z,39.99
2023-03-29T08:04:13.140Z,40.44
2023-03-29T08:06:43.548Z,38.95
2023-03-29T08:09:13.804Z,38.89
2023-03-29T08:11:42.561Z,36.44
2023-03-29T08:14:12.475Z,36.36
2023-03-29T08:16:41.989Z,35.14
2023-03-29T08:19:10.430Z,34.41
2023-03-29T08:21:39.663Z,35.82
2023-03-29T08:24:08.100Z,34.03
2023-03-29T08:26:36.437Z,32.06
2023-03-29T08:29:04.874Z,33.70
2023-03-29T08:31:33.783Z,32.37
2023-03-29T08:34:01.269Z,31.12
2023-03-29T08:36:30.509Z,31.25
2023-03-29T08:38:58.973Z,31.99
2023-03-29T08:42:05.105Z,32.81
2023-03-29T08:44:46.396Z,30.41
2023-03-29T08:47:23.222Z,30.62
2023-03-29T08:49:53.607Z,32.98
2023-03-29T08:52:38.516Z,33.50
2023-03-29T08:55:19.080Z,31.22
2023-03-29T08:57:49.031Z,32.41
2023-03-29T09:00:22.754Z,31.04
2023-03-29T09:02:52.013Z,31.05
2023-03-29T09:05:23.141Z,32.30
2023-03-29T09:07:51.828Z,32.64
2023-03-29T09:10:22.393Z,32.15
2023-03-29T09:13:08.371Z,30.61
2023-03-29T09:16:01.293Z,32.23
2023-03-29T09:18:41.927Z,31.42
2023-03-29T09:21:17.657Z,31.11
2023-03-29T09:23:55.345Z,31.55
2023-03-29T09:26:50.885Z,32.59
2023-03-29T09:29:32.814Z,33.27
2023-03-29T09:32:03.066Z,30.44
2023-03-29T09:34:41.164Z,31.23
2023-03-29T09:37:22.030Z,31.59
2023-03-29T09:39:53.165Z,31.94
2023-03-29T09:42:21.733Z,34.34
2023-03-29T09:44:52.990Z,32.33
2023-03-29T09:47:32.109Z,32.01
2023-03-29T09:50:05.177Z,30.81
2023-03-29T09:52:32.862Z,29.75
2023-03-29T09:55:02.224Z,31.36
2023-03-29T09:57:31.809Z,31.76
2023-03-29T10:00:01.902Z,33.77
2023-03-29T10:02:30.786Z,34.13
2023-03-29T10:05:04.090Z,34.63
2023-03-29T10:07:55.595Z,34.19
2023-03-29T10:10:28.170Z,35.30
2023-03-29T10:13:00.688Z,35.88
2023-03-29T10:15:30.488Z,35.25
2023-03-29T10:18:05.786Z,34.99
2023-03-29T10:20:38.573Z,37.39
2023-03-29T10:23:08.233Z,37.44
2023-03-29T10:25:42.606Z,38.14
2023-03-29T10:28:17.624Z,39.12
2023-03-29T10:30:48.768Z,38.13
2023-03-29T10:33:19.184Z,38.10
2023-03-29T10:35:47.008Z,38.32
2023-03-29T10:38:17.559Z,37.58
2023-03-29T10:40:51.888Z,39.14
2023-03-29T10:43:24.789Z,38.83
2023-03-29T10:45:56.928Z,38.89
2023-03-29T10:48:29.571Z,37.88
2023-03-29T10:51:08.293Z,38.02
2023-03-29T10:53:36.791Z,37.76
2023-03-29T10:56:29.932Z,37.26
2023-03-29T10:59:22.109Z,37.74
2023-03-29T11:02:11.617Z,38.61
2023-03-29T11:05:00.572Z,40.01
2023-03-29T11:07:52.331Z,39.55
2023-03-29T11:10:55.325Z,38.43
2023-03-29T11:13:25.400Z,39.29
2023-03-29T11:15:55.901Z,39.00
2023-03-29T11:18:41.911Z,40.01
2023-03-29T11:21:51.229Z,42.06
2023-03-29T11:24:34.027Z,40.16
2023-03-29T11:27:08.054Z,39.62
2023-03-29T11:30:06.513Z,41.56
2023-03-29T11:32:53.265Z,39.89
2023-03-29T11:35:29.717Z,40.09
2023-03-29T11:38:15.557Z,39.75
2023-03-29T11:41:16.272Z,39.45
2023-03-29T11:44:01.753Z,40.78
2023-03-29T11:46:34.191Z,41.42
2023-03-29T11:49:01.761Z,40.68
2023-03-29T11:51:33.956Z,38.50
2023-03-29T11:54:06.693Z,41.25
2023-03-29T11:56:42.657Z,41.94
2023-03-29T11:59:14.894Z,42.51
2023-03-29T12:01:53.151Z,40.71
2023-03-29T12:04:32.917Z,40.65
2023-03-29T12:07:34.400Z,41.63
2023-03-29T12:10:08.719Z,42.21
2023-03-29T12:12:46.055Z,40.28
2023-03-29T12:15:22.858Z,41.65
2023-03-29T12:18:14.174Z,42.44
2023-03-29T12:20:42.285Z,40.37
2023-03-29T12:23:13.422Z,41.35
2023-03-29T12:25:41.663Z,42.81
2023-03-29T12:28:41.393Z,42.44
2023-03-29T12:31:22.256Z,41.25
2023-03-29T12:33:52.648Z,40.83
2023-03-29T12:37:02.090Z,40.77
2023-03-29T12:39:35.975Z,39.07
2023-03-29T12:42:12.712Z,39.57
2023-03-29T12:44:58.553Z,39.93
2023-03-29T12:47:31.694Z,39.90
2023-03-29T12:50:01.558Z,40.29
2023-03-29T12:52:34.226Z,40.86
2023-03-29T12:55:05.916Z,40.90
2023-03-29T12:57:42.782Z,39.98
2023-03-29T13:00:19.267Z,41.44
2023-03-29T13:03:00.621Z,40.76
2023-03-29T13:05:35.290Z,41.05
2023-03-29T13:08:23.672Z,41.48
2023-03-29T13:10:53.967Z,40.32
2023-03-29T13:13:26.036Z,41.33
2023-03-29T13:15:53.923Z,41.36
2023-03-29T13:18:49.412Z,42.53
2023-03-29T13:21:20.187Z,42.38
2023-03-29T13:24:29.068Z,41.47
2023-03-29T13:27:07.021Z,41.37
2023-03-29T13:29:55.156Z,41.44
2023-03-29T13:32:58.776Z,42.63
2023-03-29T13:35:37.933Z,42.20
2023-03-29T13:38:20.813Z,43.05
2023-03-29T13:40:54.580Z,42.51
2023-03-29T13:43:31.393Z,41.26
2023-03-29T13:45:58.781Z,40.58
2023-03-29T13:48:30.143Z,41.15
2023-03-29T13:51:05.161Z,39.77
2023-03-29T13:53:39.830Z,40.64
2023-03-29T13:56:12.267Z,40.01
2023-03-29T13:58:39.805Z,41.01
2023-03-29T14:01:13.536Z,40.94
2023-03-29T14:03:45.062Z,40.40
2023-03-29T14:06:26.057Z,39.87
2023-03-29T14:08:54.200Z,39.93
2023-03-29T14:11:24.993Z,39.98
2023-03-29T14:13:57.774Z,41.55
2023-03-29T14:16:32.028Z,40.45
2023-03-29T14:19:22.107Z,40.97
2023-03-29T14:21:53.271Z,39.32
2023-03-29T14:24:28.728Z,39.66
2023-03-29T14:26:56.726Z,40.83
2023-03-29T14:29:25.595Z,40.78
2023-03-29T14:31:52.941Z,40.37
2023-03-29T14:34:20.758Z,41.26
2023-03-29T14:36:49.105Z,42.25
2023-03-29T14:39:21.718Z,41.78
2023-03-29T14:41:54.029Z,40.70
2023-03-29T14:44:22.632Z,41.63
2023-03-29T14:46:50.173Z,40.79
2023-03-29T14:49:20.013Z,41.04
2023-03-29T14:51:48.290Z,41.06
2023-03-29T14:54:22.263Z,39.73
2023-03-29T14:56:50.704Z,40.65
2023-03-29T14:59:29.725Z,39.76
2023-03-29T15:01:57.106Z,38.40
2023-03-29T15:04:33.114Z,39.86
2023-03-29T15:07:00.482Z,39.84
2023-03-29T15:09:32.616Z,39.96
2023-03-29T15:12:01.013Z,39.97
2023-03-29T15:14:34.117Z,39.82
2023-03-29T15:17:03.860Z,40.91
2023-03-29T15:19:59.449Z,40.15
2023-03-29T15:22:33.557Z,41.06
2023-03-29T15:25:18.348Z,41.85
2023-03-29T15:31:19.332Z,41.53
2023-03-29T15:33:47.544Z,41.56
2023-03-29T15:36:23.258Z,41.92
2023-03-29T15:38:51.146Z,42.92
2023-03-29T15:44:48.732Z,42.86
2023-03-29T15:47:16.233Z,44.06
2023-03-29T15:49:43.408Z,44.89
2023-03-29T15:52:10.627Z,44.08
2023-03-29T15:54:38.274Z,44.77
2023-03-29T15:57:07.873Z,45.68
2023-03-29T15:59:36.556Z,45.89
2023-03-29T16:02:04.786Z,45.76
2023-03-29T16:08:02.294Z,45.47
2023-03-29T16:14:00.526Z,47.24
2023-03-29T16:16:28.056Z,47.10
2023-03-29T16:18:55.253Z,47.44
2023-03-29T16:28:41.272Z,48.77
2023-03-29T16:31:30.150Z,49.78
2023-03-29T16:33:59.967Z,49.83
2023-03-29T16:36:31.083Z,50.60
2023-03-29T16:39:10.726Z,51.79
2023-03-29T16:45:15.903Z,56.02
2023-03-29T16:47:44.487Z,57.95
2023-03-29T16:53:37.319Z,60.28
2023-03-29T16:59:20.088Z,62.49
2023-03-29T17:01:47.713Z,63.29
2023-03-29T17:04:14.930Z,63.83
2023-03-29T17:10:13.096Z,66.28
2023-03-29T17:12:40.918Z,66.49
2023-03-29T17:15:11.432Z,65.87
2023-03-29T17:17:41.484Z,66.71
2023-03-29T17:20:12.333Z,66.56
2023-03-29T17:22:40.563Z,66.23
2023-03-29T17:25:09.105Z,66.41
2023-03-29T17:34:24.005Z,67.90
2023-03-29T17:36:53.653Z,68.62
2023-03-29T17:42:59.980Z,70.30
2023-03-29T17:49:03.687Z,72.11
2023-03-29T17:51:50.720Z,73.44
2023-03-29T17:54:18.594Z,72.48
2023-03-29T18:00:17.386Z,73.11
2023-03-29T18:02:46.465Z,72.85
2023-03-29T18:09:08.444Z,73.35
2023-03-29T18:11:41.620Z,74.79
2023-03-29T18:17:09.141Z,73.49
2023-03-29T18:19:39.728Z,73.88
2023-03-29T18:22:07.366Z,74.49
2023-03-29T18:32:00.213Z,76.13
2023-03-29T18:34:30.446Z,76.36
2023-03-29T18:36:59.043Z,76.90
2023-03-29T18:39:27.915Z,76.22
2023-03-29T18:45:28.788Z,76.65
2023-03-29T18:51:28.791Z,78.49
2023-03-29T18:54:18.068Z,78.16
2023-03-29T19:00:18.029Z,79.01
2023-03-29T19:02:47.133Z,79.30
2023-03-29T19:05:16.798Z,79.86
2023-03-29T19:11:15.673Z,80.45
2023-03-29T19:17:16.081Z,80.62
2023-03-29T19:20:10.796Z,80.65
2023-03-29T19:23:08.445Z,81.00
2023-03-29T19:25:37.590Z,83.41
2023-03-29T19:28:06.379Z,84.06
2023-03-29T19:30:37.468Z,83.55
2023-03-29T19:36:41.212Z,82.61
2023-03-29T19:39:12.429Z,82.16
2023-03-29T19:41:41.949Z,82.66
2023-03-29T19:44:29.017Z,82.22
2023-03-29T19:50:34.333Z,82.69
2023-03-29T19:56:36.359Z,86.88
2023-03-29T19:59:04.781Z,84.80
2023-03-29T20:08:08.246Z,84.51
2023-03-29T20:10:36.110Z,84.66
2023-03-29T20:13:06.226Z,84.63
2023-03-29T20:18:40.971Z,84.88
2023-03-29T20:24:10.789Z,84.34
2023-03-29T20:26:40.179Z,84.92
2023-03-29T20:29:08.212Z,84.75
2023-03-29T20:31:35.953Z,82.80
2023-03-29T20:34:06.852Z,82.84
2023-03-29T20:36:34.734Z,81.43
2023-03-29T20:39:04.643Z,82.24
2023-03-29T20:41:33.880Z,82.94
2023-03-29T20:44:05.725Z,83.75
2023-03-29T20:46:33.625Z,84.37
2023-03-29T20:49:02.908Z,82.89
2023-03-29T20:51:31.917Z,82.77
2023-03-29T20:54:04.732Z,82.20
2023-03-29T20:56:34.579Z,82.76
2023-03-29T20:59:03.015Z,83.03
2023-03-29T21:01:30.778Z,84.73
2023-03-29T21:03:58.347Z,85.00
2023-03-29T21:06:26.196Z,83.58
2023-03-29T21:08:53.350Z,84.08
2023-03-29T21:11:21.080Z,84.01
2023-03-29T21:13:48.634Z,84.99
2023-03-29T21:16:15.952Z,87.24
2023-03-29T21:18:43.610Z,88.21
2023-03-29T21:21:11.988Z,88.19
2023-03-29T21:23:39.660Z,88.83
2023-03-29T21:26:07.866Z,90.89
2023-03-29T21:28:37.698Z,92.00
2023-03-29T21:31:06.657Z,92.50
2023-03-29T21:33:35.187Z,93.43
2023-03-29T21:36:02.825Z,92.89
2023-03-29T21:38:30.157Z,92.67
2023-03-29T21:40:58.277Z,92.68
2023-03-29T21:43:25.929Z,92.80
2023-03-29T21:45:53.304Z,91.66
2023-03-29T21:48:20.401Z,94.87
2023-03-29T21:50:51.193Z,96.07
2023-03-29T21:53:18.499Z,96.32
2023-03-29T21:55:48.557Z,97.06
2023-03-29T21:58:16.797Z,99.97
2023-03-29T22:00:44.847Z,99.60
2023-03-29T22:03:12.612Z,99.78
2023-03-29T22:05:39.864Z,100.00
2023-03-29T22:08:10.344Z,100.00
2023-03-29T22:10:38.484Z,100.00
2023-03-29T22:13:05.992Z,100.00
2023-03-29T22:15:35.639Z,100.00
2023-03-29T22:18:03.895Z,100.00
2023-03-29T22:20:35.626Z,100.00
2023-03-29T22:23:04.802Z,100.00
2023-03-29T22:25:32.062Z,100.00
2023-03-29T22:27:59.216Z,100.00
2023-03-29T22:30:27.312Z,100.00
2023-03-29T22:32:54.623Z,100.00
2023-03-29T22:35:22.029Z,100.00
2023-03-29T22:37:50.823Z,100.00
2023-03-29T22:40:18.164Z,100.00
2023-03-29T22:42:45.376Z,100.00
2023-03-29T22:45:12.905Z,100.00
2023-03-29T22:47:40.429Z,100.00
2023-03-29T22:50:08.198Z,100.00
2023-03-29T22:52:36.192Z,100.00
2023-03-29T22:55:06.456Z,100.00
2023-03-29T22:57:33.643Z,100.00
2023-03-29T23:00:01.311Z,100.00
2023-03-29T23:02:28.739Z,100.00
2023-03-29T23:04:55.952Z,100.00
2023-03-29T23:07:23.366Z,100.00
2023-03-29T23:09:50.665Z,100.00
2023-03-29T23:12:17.861Z,100.00
2023-03-29T23:14:45.319Z,100.00
2023-03-29T23:17:13.522Z,100.00
2023-03-29T23:19:41.670Z,100.00
2023-03-29T23:22:09.139Z,100.00
2023-03-29T23:24:36.274Z,98.38
2023-03-29T23:27:04.930Z,97.21
2023-03-29T23:29:32.316Z,95.77
2023-03-29T23:31:59.694Z,94.49
2023-03-29T23:34:26.807Z,94.92
2023-03-29T23:36:54.281Z,96.08
2023-03-29T23:39:22.316Z,96.68
2023-03-29T23:41:49.697Z,95.87
2023-03-29T23:44:17.134Z,98.27
2023-03-29T23:46:44.364Z,98.45
2023-03-29T23:49:11.514Z,98.65
2023-03-29T23:51:39.268Z,96.82
2023-03-29T23:54:06.701Z,98.42
2023-03-29T23:56:34.374Z,96.04
2023-03-29T23:59:03.321Z,93.50
